Time;durP1;ratioP1;P1;durP2;ratioP2;P2;SDS_P1;SDS_P2;PMS_P1;PMS_P2;Temp;Humidity;BMP_temperature;BMP_pressure;BME280_temperature;BME280_humidity;BME280_pressure;Samples;Min_cycle;Max_cycle;Signal;HPM_P1;HPM_P2
2021/10/24 00:02:10;;;;;;;53.47;24.17;;;;;;;;;;4994105;28;20999;-90
2021/10/24 00:04:37;;;;;;;32.90;15.80;;;;;;;;;;4994508;28;20457;-91
2021/10/24 00:07:05;;;;;;;24.13;13.63;;;;;;;;;;4994728;28;20790;-89
2021/10/24 00:09:33;;;;;;;18.03;10.30;;;;;;;;;;4993540;28;20460;-88
2021/10/24 00:12:01;;;;;;;9.43;7.60;;;;;;;;;;4994307;28;20457;-91
2021/10/24 00:14:28;;;;;;;11.47;7.30;;;;;;;;;;4994384;28;20614;-91
2021/10/24 00:16:55;;;;;;;12.30;7.43;;;;;;;;;;4994325;28;20441;-91
2021/10/24 00:19:22;;;;;;;10.00;6.87;;;;;;;;;;4994493;28;20857;-89
2021/10/24 00:21:49;;;;;;;11.47;6.87;;;;;;;;;;4994030;28;20457;-89
2021/10/24 00:24:17;;;;;;;12.10;6.50;;;;;;;;;;4992584;28;20887;-88
2021/10/24 00:26:46;;;;;;;8.67;6.10;;;;;;;;;;4998277;28;20446;-89
2021/10/24 00:29:13;;;;;;;11.70;6.80;;;;;;;;;;4996851;28;20533;-86
2021/10/24 00:31:40;;;;;;;8.83;6.10;;;;;;;;;;4993742;28;20450;-90
2021/10/24 00:34:07;;;;;;;7.83;6.10;;;;;;;;;;4993860;28;20481;-88
2021/10/24 00:36:35;;;;;;;9.47;5.83;;;;;;;;;;4993931;28;20457;-88
2021/10/24 00:39:02;;;;;;;11.60;5.93;;;;;;;;;;4992736;28;20445;-88
2021/10/24 00:41:30;;;;;;;8.00;6.10;;;;;;;;;;4994106;28;20452;-89
2021/10/24 00:43:59;;;;;;;8.27;5.77;;;1.60;99.90;;;;;;4994007;28;20497;-90
2021/10/24 00:46:26;;;;;;;11.23;5.63;;;;;;;;;;4993543;28;20449;-88
2021/10/24 00:48:53;;;;;;;6.93;5.70;;;;;;;;;;4993790;28;20453;-91
2021/10/24 00:51:20;;;;;;;7.27;5.33;;;;;;;;;;4994019;28;20836;-89
2021/10/24 00:53:48;;;;;;;12.00;5.93;;;;;;;;;;4994069;28;20468;-90
2021/10/24 00:56:15;;;;;;;8.47;5.40;;;;;;;;;;4993178;28;20425;-91
2021/10/24 00:58:43;;;;;;;7.80;5.70;;;1.50;99.90;;;;;;4992905;28;20449;-90
2021/10/24 01:01:11;;;;;;;10.20;5.97;;;1.60;99.90;;;;;;4993826;28;20450;-89
2021/10/24 01:03:38;;;;;;;8.70;6.43;;;;;;;;;;4988267;28;20505;-89
2021/10/24 01:06:05;;;;;;;11.33;6.60;;;;;;;;;;4998465;28;20449;-87
2021/10/24 01:08:33;;;;;;;12.17;7.10;;;1.50;99.90;;;;;;5003126;28;20460;-87
2021/10/24 01:11:00;;;;;;;10.53;6.90;;;;;;;;;;4993390;28;20449;-87
2021/10/24 01:13:27;;;;;;;10.63;7.03;;;;;;;;;;4993905;28;20453;-91
2021/10/24 01:16:11;;;;;;;10.87;6.77;;;1.40;99.90;;;;;;4993473;28;20453;-89
2021/10/24 01:18:38;;;;;;;11.03;6.70;;;;;;;;;;4992943;28;20449;-90
2021/10/24 01:21:07;;;;;;;10.03;6.20;;;;;;;;;;4993612;28;20453;-89
2021/10/24 01:23:34;;;;;;;15.50;7.80;;;;;;;;;;4993673;28;20508;-88
2021/10/24 01:26:01;;;;;;;12.33;7.17;;;;;;;;;;4992672;28;20452;-90
2021/10/24 01:28:28;;;;;;;14.00;6.20;;;;;;;;;;4993131;28;20972;-90
2021/10/24 01:30:56;;;;;;;15.60;7.10;;;;;;;;;;4993337;28;20442;-91
2021/10/24 01:33:23;;;;;;;10.40;6.43;;;;;;;;;;4992925;28;20453;-90
2021/10/24 01:35:54;;;;;;;17.30;6.67;;;1.20;99.90;;;;;;4992773;28;20449;-90
2021/10/24 01:38:24;;;;;;;12.40;6.50;;;1.10;99.90;;;;;;4994243;28;20449;-87
2021/10/24 01:40:51;;;;;;;12.53;6.53;;;;;;;;;;4992061;28;20445;-90
2021/10/24 01:43:19;;;;;;;10.97;5.40;;;;;;;;;;4993176;28;20488;-88
2021/10/24 01:45:46;;;;;;;13.07;6.80;;;;;;;;;;4993184;28;20460;-86
2021/10/24 01:48:14;;;;;;;12.87;5.23;;;;;;;;;;4993998;28;20816;-86
2021/10/24 01:50:42;;;;;;;11.60;5.60;;;;;;;;;;4992863;28;20588;-88
2021/10/24 01:53:09;;;;;;;12.40;6.80;;;;;;;;;;4993077;28;20453;-89
2021/10/24 01:55:37;;;;;;;12.17;6.13;;;1.10;99.90;;;;;;4992276;28;20523;-86
2021/10/24 01:58:04;;;;;;;10.10;5.50;;;;;;;;;;4993133;28;20457;-87
2021/10/24 02:00:31;;;;;;;9.13;5.10;;;;;;;;;;4993071;28;20828;-88
2021/10/24 02:02:59;;;;;;;11.47;6.10;;;;;;;;;;4992767;28;20497;-91
2021/10/24 02:05:27;;;;;;;11.37;5.20;;;;;;;;;;4992859;28;20488;-86
2021/10/24 02:07:54;;;;;;;9.40;5.73;;;;;;;;;;4993067;28;20445;-86
2021/10/24 02:10:21;;;;;;;10.30;5.23;;;;;;;;;;4992746;28;20449;-87
2021/10/24 02:12:50;;;;;;;7.30;5.10;;;;;;;;;;4996608;28;20449;-90
2021/10/24 02:15:17;;;;;;;11.30;6.00;;;;;;;;;;4996700;28;20449;-90
2021/10/24 02:17:44;;;;;;;12.60;5.40;;;;;;;;;;4996380;28;20452;-87
2021/10/24 02:20:12;;;;;;;12.40;5.40;;;;;;;;;;4996513;28;20441;-90
2021/10/24 02:22:39;;;;;;;7.70;4.60;;;0.90;99.90;;;;;;4996307;28;20480;-89
2021/10/24 02:25:07;;;;;;;6.80;4.80;;;0.80;99.90;;;;;;4995089;28;20783;-88
2021/10/24 02:27:35;;;;;;;9.00;5.13;;;;;;;;;;4992147;28;20528;-89
2021/10/24 02:30:04;;;;;;;7.60;4.33;;;0.90;99.90;;;;;;4996794;28;20440;-89
2021/10/24 02:32:31;;;;;;;8.83;5.53;;;;;;;;;;4992219;28;20465;-91
2021/10/24 02:34:58;;;;;;;10.83;5.20;;;;;;;;;;5005540;28;20816;-87
2021/10/24 02:37:25;;;;;;;6.70;4.47;;;;;;;;;;5000350;28;20452;-88
2021/10/24 02:39:53;;;;;;;7.67;4.97;;;;;;;;;;5000574;28;20446;-88
2021/10/24 02:42:20;;;;;;;10.87;5.17;;;;;;;;;;5001089;28;20567;-90
2021/10/24 02:44:47;;;;;;;9.17;4.60;;;;;;;;;;4996749;28;20456;-87
2021/10/24 02:47:17;;;;;;;8.43;4.40;;;;;;;;;;4996514;28;20453;-90
2021/10/24 02:49:45;;;;;;;9.70;3.90;;;;;;;;;;4996303;28;20560;-87
2021/10/24 02:52:12;;;;;;;14.13;5.20;;;;;;;;;;4996648;28;20476;-89
2021/10/24 02:54:39;;;;;;;10.63;5.40;;;;;;;;;;4995052;28;20464;-88
2021/10/24 02:57:06;;;;;;;5.67;3.53;;;;;;;;;;4995770;28;20450;-88
2021/10/24 02:59:35;;;;;;;6.93;4.50;;;;;;;;;;5001981;28;20448;-90
2021/10/24 03:02:05;;;;;;;8.23;4.20;;;0.80;99.90;;;;;;5000286;28;20504;-90
2021/10/24 03:04:37;;;;;;;10.20;4.03;;;;;;;;;;5009161;28;20861;-93
2021/10/24 03:07:06;;;;;;;9.30;4.90;;;0.80;99.90;;;;;;4998519;28;20489;-94
2021/10/24 03:09:36;;;;;;;7.87;4.10;;;;;;;;;;5010942;28;20441;-92
2021/10/24 03:12:06;;;;;;;8.90;3.97;;;;;;;;;;4997664;28;20934;-92
2021/10/24 03:14:37;;;;;;;5.17;3.90;;;;;;;;;;5004365;28;20511;-91
2021/10/24 03:17:07;;;;;;;6.47;3.70;;;;;;;;;;5004332;28;20436;-93
2021/10/24 03:19:41;;;;;;;8.37;4.37;;;;;;;;;;5004131;28;20555;-91
2021/10/24 03:22:08;;;;;;;5.50;3.57;;;;;;;;;;5011806;28;20491;-90
2021/10/24 03:24:35;;;;;;;6.90;4.13;;;;;;;;;;5006838;28;20511;-89
2021/10/24 03:27:02;;;;;;;9.13;4.23;;;;;;;;;;5005849;28;20451;-88
2021/10/24 03:29:30;;;;;;;7.10;4.80;;;;;;;;;;5014691;28;20479;-88
2021/10/24 03:31:57;;;;;;;6.30;3.70;;;;;;;;;;5014381;28;20923;-89
2021/10/24 03:34:24;;;;;;;4.77;3.53;;;;;;;;;;5014616;28;20461;-88
2021/10/24 03:36:52;;;;;;;6.13;4.47;;;;;;;;;;5014216;28;20460;-88
2021/10/24 03:39:19;;;;;;;7.53;4.73;;;;;;;;;;5013304;28;20460;-91
2021/10/24 03:41:47;;;;;;;6.10;3.33;;;;;;;;;;5014728;28;20487;-89
2021/10/24 03:44:14;;;;;;;5.87;3.87;;;;;;;;;;5016405;28;20488;-88
2021/10/24 03:46:41;;;;;;;5.23;3.57;;;;;;;;;;5015253;28;20452;-89
2021/10/24 03:49:08;;;;;;;7.87;4.07;;;;;;;;;;5014107;28;20472;-89
2021/10/24 03:51:35;;;;;;;5.87;4.00;;;;;;;;;;5014034;28;20452;-92
2021/10/24 03:54:04;;;;;;;6.63;3.50;;;;;;;;;;4999228;28;20449;-86
2021/10/24 03:56:32;;;;;;;7.83;4.47;;;;;;;;;;5008204;28;20453;-86
2021/10/24 03:59:00;;;;;;;5.73;3.57;;;;;;;;;;5008053;28;20460;-91
2021/10/24 04:01:27;;;;;;;4.90;4.03;;;;;;;;;;5002716;28;20453;-91
2021/10/24 04:03:55;;;;;;;6.63;4.13;;;;;;;;;;5012803;28;20519;-89
2021/10/24 04:06:22;;;;;;;6.20;4.30;;;;;;;;;;5004632;28;20448;-91
2021/10/24 04:08:49;;;;;;;6.23;4.10;;;;;;;;;;5002189;28;20451;-88
2021/10/24 04:11:19;;;;;;;4.97;4.00;;;0.50;99.90;;;;;;5000783;28;20449;-87
2021/10/24 04:13:46;;;;;;;4.93;4.07;;;;;;;;;;5004595;28;20889;-86
2021/10/24 04:16:13;;;;;;;7.00;4.23;;;;;;;;;;5004430;28;20520;-86
2021/10/24 04:18:41;;;;;;;6.67;3.83;;;;;;;;;;5003664;28;20534;-86
2021/10/24 04:21:08;;;;;;;6.37;3.83;;;;;;;;;;5003515;28;20452;-86
2021/10/24 04:23:35;;;;;;;5.13;4.27;;;;;;;;;;5002918;28;20472;-87
2021/10/24 04:26:02;;;;;;;5.50;4.17;;;;;;;;;;5003456;28;20441;-90
2021/10/24 04:28:35;;;;;;;5.07;3.80;;;;;;;;;;5004539;28;20445;-87
2021/10/24 04:31:02;;;;;;;4.60;3.50;;;;;;;;;;5002595;28;20441;-88
2021/10/24 04:33:29;;;;;;;5.27;3.73;;;;;;;;;;5000886;28;20445;-88
2021/10/24 04:35:56;;;;;;;7.80;3.40;;;;;;;;;;5013477;28;20444;-89
2021/10/24 04:38:23;;;;;;;5.63;4.03;;;;;;;;;;5013440;28;20444;-89
2021/10/24 04:40:51;;;;;;;14.90;3.80;;;;;;;;;;5012070;28;20444;-88
2021/10/24 04:43:18;;;;;;;4.53;3.67;;;;;;;;;;5013232;28;20547;-89
2021/10/24 04:45:47;;;;;;;5.30;3.47;;;;;;;;;;5013280;28;20916;-89
2021/10/24 04:48:14;;;;;;;10.50;3.70;;;;;;;;;;5012837;28;20484;-88
2021/10/24 04:50:41;;;;;;;6.13;3.37;;;;;;;;;;5013218;28;20547;-89
2021/10/24 04:53:09;;;;;;;4.97;3.67;;;0.70;99.90;;;;;;5013045;28;20463;-89
2021/10/24 04:55:37;;;;;;;6.00;3.20;;;;;;;;;;5015858;28;20463;-89
2021/10/24 04:58:04;;;;;;;4.87;3.53;;;;;;;;;;5016149;28;20468;-89
2021/10/24 05:00:31;;;;;;;8.20;3.30;;;0.20;99.90;;;;;;5015726;28;20524;-87
2021/10/24 05:03:01;;;;;;;7.07;3.60;;;;;;;;;;5013334;28;20504;-90
2021/10/24 05:05:28;;;;;;;4.20;2.63;;;;;;;;;;5013556;28;20480;-88
2021/10/24 05:07:56;;;;;;;3.80;3.00;;;;;;;;;;5013617;28;20451;-89
2021/10/24 05:10:23;;;;;;;5.90;3.43;;;;;;;;;;5011934;28;20451;-89
2021/10/24 05:12:50;;;;;;;6.70;3.80;;;;;;;;;;5013037;28;20919;-89
2021/10/24 05:15:18;;;;;;;6.47;3.63;;;;;;;;;;5013185;28;20447;-91
2021/10/24 05:17:45;;;;;;;6.90;3.20;;;;;;;;;;5013435;28;20452;-89
2021/10/24 05:20:13;;;;;;;5.57;3.83;;;0.20;99.90;;;;;;5013266;28;20463;-92
2021/10/24 05:22:40;;;;;;;13.47;3.50;;;;;;;;;;5013012;28;20572;-88
2021/10/24 05:25:08;;;;;;;4.43;2.93;;;0.20;99.90;;;;;;5011567;28;20585;-90
2021/10/24 05:27:35;;;;;;;6.93;3.70;;;;;;;;;;5013105;28;20452;-92
2021/10/24 05:30:02;;;;;;;5.67;3.40;;;;;;;;;;5014913;28;20459;-89
2021/10/24 05:32:29;;;;;;;5.47;2.80;;;;;;;;;;5024764;28;20491;-88
2021/10/24 05:34:57;;;;;;;4.93;3.47;;;;;;;;;;5014627;28;20520;-91
2021/10/24 05:37:25;;;;;;;9.90;4.20;;;0.10;99.90;;;;;;5012776;28;20935;-88
2021/10/24 05:39:52;;;;;;;4.33;2.87;;;;;;;;;;5011730;28;20455;-89
2021/10/24 05:42:19;;;;;;;7.77;3.50;;;;;;;;;;5012549;28;20455;-88
2021/10/24 05:44:46;;;;;;;6.33;3.37;;;;;;;;;;5014281;28;20502;-91
2021/10/24 05:47:14;;;;;;;7.70;4.07;;;;;;;;;;5015978;28;20452;-91
2021/10/24 05:49:41;;;;;;;5.40;3.33;;;;;;;;;;5016276;28;20494;-90
2021/10/24 05:52:08;;;;;;;6.63;4.00;;;;;;;;;;5016546;28;20920;-89
2021/10/24 05:54:37;;;;;;;5.87;3.77;;;-0.10;99.90;;;;;;5015159;28;20448;-91
2021/10/24 05:57:04;;;;;;;5.83;3.30;;;;;;;;;;5016401;28;20456;-88
2021/10/24 05:59:31;;;;;;;5.40;3.50;;;;;;;;;;5016492;28;20457;-93
2021/10/24 06:01:58;;;;;;;6.63;3.33;;;;;;;;;;5016212;28;21002;-92
2021/10/24 06:04:26;;;;;;;5.43;3.30;;;0.20;99.90;;;;;;5016055;28;20495;-88
2021/10/24 06:06:53;;;;;;;7.53;3.77;;;;;;;;;;5016397;28;20540;-88
2021/10/24 06:09:28;;;;;;;8.70;4.13;;;;;;;;;;5015894;28;20456;-87
2021/10/24 06:11:59;;;;;;;7.80;4.20;;;0.20;99.90;;;;;;5016238;28;20486;-87
2021/10/24 06:14:26;;;;;;;9.30;4.03;;;;;;;;;;5016207;28;20456;-88
2021/10/24 06:16:53;;;;;;;7.50;4.20;;;;;;;;;;5017137;28;20456;-88
2021/10/24 06:19:21;;;;;;;6.93;4.03;;;;;;;;;;5016251;28;20444;-89
2021/10/24 06:21:48;;;;;;;6.73;3.50;;;;;;;;;;5016014;28;20460;-90
2021/10/24 06:24:15;;;;;;;5.93;3.30;;;;;;;;;;5015300;28;20484;-90
2021/10/24 06:26:43;;;;;;;4.93;4.00;;;;;;;;;;5016544;28;20453;-91
2021/10/24 06:29:12;;;;;;;11.93;4.07;;;0.50;99.90;;;;;;5016845;28;20527;-89
2021/10/24 06:31:39;;;;;;;10.40;6.23;;;;;;;;;;5014958;28;20444;-89
2021/10/24 06:34:06;;;;;;;12.57;6.60;;;;;;;;;;5022449;28;20455;-92
2021/10/24 06:36:34;;;;;;;11.00;7.03;;;;;;;;;;5030413;28;20443;-91
2021/10/24 06:39:02;;;;;;;9.27;6.33;;;;;;;;;;5012812;28;20449;-89
2021/10/24 06:41:29;;;;;;;6.97;5.47;;;;;;;;;;5016119;28;20448;-89
2021/10/24 06:43:56;;;;;;;15.20;7.20;;;;;;;;;;5012782;28;20483;-88
2021/10/24 06:46:24;;;;;;;12.53;7.00;;;1.10;99.90;;;;;;5015371;28;20453;-87
2021/10/24 06:48:52;;;;;;;13.47;6.80;;;;;;;;;;5007695;28;20985;-89
2021/10/24 06:51:20;;;;;;;6.97;5.80;;;;;;;;;;5007918;28;20457;-87
2021/10/24 06:53:50;;;;;;;12.80;6.80;;;;;;;;;;5002103;28;20577;-91
2021/10/24 06:56:20;;;;;;;10.53;6.07;;;1.50;99.90;;;;;;4998860;28;20438;-93
2021/10/24 06:58:50;;;;;;;14.07;6.57;;;;;;;;;;5012969;28;20481;-86
2021/10/24 07:01:21;;;;;;;11.20;6.60;;;;;;;;;;5009366;28;20445;-87
2021/10/24 07:03:50;;;;;;;7.80;5.60;;;;;;;;;;5015154;28;20512;-90
2021/10/24 07:06:17;;;;;;;8.37;6.20;;;;;;;;;;5015216;28;20864;-90
2021/10/24 07:08:44;;;;;;;9.57;6.10;;;;;;;;;;5015839;28;20546;-87
2021/10/24 07:11:11;;;;;;;9.27;6.70;;;;;;;;;;5013752;28;20452;-87
2021/10/24 07:13:39;;;;;;;8.00;5.77;;;;;;;;;;5014264;28;20468;-88
2021/10/24 07:16:06;;;;;;;5.93;4.90;;;4.30;99.90;;;;;;5013872;28;20471;-85
2021/10/24 07:18:34;;;;;;;9.47;4.90;;;;;;;;;;5004349;28;20441;-87
2021/10/24 07:21:05;;;;;;;7.43;5.50;;;5.40;99.90;;;;;;5003491;28;20448;-88
2021/10/24 07:23:38;;;;;;;7.20;5.53;;;;;;;;;;5004443;28;20445;-89
2021/10/24 07:26:06;;;;;;;10.77;6.70;;;;;;;;;;5006074;28;20493;-88
2021/10/24 07:28:36;;;;;;;6.53;5.17;;;;;;;;;;5006071;28;20465;-90
2021/10/24 07:31:04;;;;;;;5.73;4.97;;;;;;;;;;5003522;28;20446;-87
2021/10/24 07:33:31;;;;;;;8.40;4.67;;;;;;;;;;5006500;28;20755;-90
2021/10/24 07:35:58;;;;;;;5.00;4.17;;;;;;;;;;5013676;28;20452;-88
2021/10/24 07:38:26;;;;;;;6.87;4.67;;;9.00;99.90;;;;;;5014596;28;20467;-87
2021/10/24 07:40:53;;;;;;;4.90;4.00;;;;;;;;;;5013818;28;20440;-87
2021/10/24 07:43:21;;;;;;;5.00;4.00;;;;;;;;;;5014867;28;20808;-89
2021/10/24 07:45:49;;;;;;;4.80;3.97;;;;;;;;;;5014788;28;20488;-89
2021/10/24 07:48:17;;;;;;;5.37;4.27;;;;;;;;;;5014378;28;20797;-89
2021/10/24 07:50:44;;;;;;;7.33;4.67;;;;;;;;;;5014553;28;20464;-89
2021/10/24 07:53:11;;;;;;;10.53;4.37;;;10.90;99.90;;;;;;5014661;28;20463;-91
2021/10/24 07:55:40;;;;;;;7.50;4.43;;;;;;;;;;5015581;28;20456;-92
2021/10/24 07:58:07;;;;;;;7.07;4.37;;;;;;;;;;5008540;28;20445;-90
2021/10/24 08:00:34;;;;;;;6.63;4.77;;;;;;;;;;4999914;28;20441;-92
2021/10/24 08:03:03;;;;;;;6.37;3.90;;;11.50;99.90;;;;;;5004765;28;20477;-93
2021/10/24 08:05:30;;;;;;;5.57;4.23;;;;;;;;;;4997857;28;20489;-93
2021/10/24 08:07:59;;;;;;;5.70;4.93;;;11.20;99.90;;;;;;4995560;28;20454;-91
2021/10/24 08:10:26;;;;;;;5.23;4.33;;;;;;;;;;4993258;28;20465;-91
2021/10/24 08:12:55;;;;;;;10.37;4.80;;;;;;;;;;4996988;28;20917;-91
2021/10/24 08:15:22;;;;;;;6.37;4.57;;;;;;;;;;4995123;28;20464;-92
2021/10/24 08:17:50;;;;;;;6.53;4.60;;;;;;;;;;4997632;28;20473;-92
2021/10/24 08:20:18;;;;;;;6.20;4.47;;;;;;;;;;5000836;28;20477;-91
2021/10/24 08:22:46;;;;;;;7.40;4.20;;;12.00;99.90;;;;;;4999856;28;20453;-91
2021/10/24 08:25:13;;;;;;;7.90;4.33;;;12.60;99.90;;;;;;4994299;28;20485;-91
2021/10/24 08:27:40;;;;;;;6.40;4.00;;;;;;;;;;5005036;28;20520;-91
2021/10/24 08:30:10;;;;;;;5.83;4.17;;;13.30;98.80;;;;;;5002432;28;21008;-94
2021/10/24 08:32:37;;;;;;;4.43;4.03;;;;;;;;;;4994421;28;20434;-90
2021/10/24 08:35:07;;;;;;;8.47;3.83;;;14.00;97.90;;;;;;5011082;28;20825;-88
2021/10/24 08:37:35;;;;;;;6.03;4.37;;;;;;;;;;5013529;28;20539;-89
2021/10/24 08:40:02;;;;;;;7.47;4.37;;;;;;;;;;5013681;28;20460;-93
2021/10/24 08:42:33;;;;;;;5.57;4.03;;;;;;;;;;5013982;28;20444;-89
2021/10/24 08:45:01;;;;;;;6.60;4.30;;;13.40;97.60;;;;;;5013613;28;20490;-90
2021/10/24 08:47:30;;;;;;;4.50;3.80;;;13.60;97.90;;;;;;5014496;28;20991;-89
2021/10/24 08:49:58;;;;;;;5.27;4.00;;;;;;;;;;5014170;28;20463;-89
2021/10/24 08:52:26;;;;;;;4.67;3.37;;;13.70;97.00;;;;;;5017060;28;20460;-90
2021/10/24 08:54:54;;;;;;;4.03;3.63;;;12.90;99.00;;;;;;5011227;28;20494;-91
2021/10/24 08:57:23;;;;;;;3.93;3.23;;;;;;;;;;5013376;28;20965;-88
2021/10/24 08:59:50;;;;;;;5.20;3.40;;;;;;;;;;5004636;28;20457;-86
2021/10/24 09:02:17;;;;;;;2.43;2.23;;;;;;;;;;4992816;28;20485;-85
2021/10/24 09:04:51;;;;;;;5.37;3.33;;;12.60;99.90;;;;;;4988407;28;20489;-86
2021/10/24 09:07:19;;;;;;;4.97;3.30;;;13.10;98.00;;;;;;4992418;28;20460;-86
2021/10/24 09:09:46;;;;;;;3.43;2.80;;;;;;;;;;4991723;28;20453;-89
2021/10/24 09:12:15;;;;;;;5.00;3.20;;;13.70;96.90;;;;;;4993075;28;20461;-89
2021/10/24 09:14:45;;;;;;;5.00;3.10;;;13.70;97.80;;;;;;4993213;28;20453;-89
2021/10/24 09:17:15;;;;;;;4.83;2.90;;;13.40;97.60;;;;;;4992467;28;20456;-86
2021/10/24 09:19:44;;;;;;;4.10;2.90;;;13.80;96.70;;;;;;4995771;28;20816;-88
2021/10/24 09:22:17;;;;;;;2.93;2.63;;;13.30;97.20;;;;;;4997813;28;21158;-89
2021/10/24 09:25:11;;;;;;;5.30;2.97;;;14.00;96.20;;;;;;5005791;28;20496;-91
2021/10/24 09:27:44;;;;;;;3.17;2.80;;;14.10;96.90;;;;;;4985270;28;20453;-90
2021/10/24 09:30:12;;;;;;;3.70;2.53;;;13.00;98.10;;;;;;4998105;28;20449;-90
2021/10/24 09:32:47;;;;;;;3.53;2.77;;;;;;;;;;4998030;28;20480;-90
2021/10/24 09:35:14;;;;;;;9.60;3.53;;;;;;;;;;4998227;28;20452;-86
2021/10/24 09:37:46;;;;;;;4.67;2.60;;;;;;;;;;4997536;28;20449;-90
2021/10/24 09:40:18;;;;;;;11.63;6.77;;;;;;;;;;4997318;28;20833;-87
2021/10/24 09:42:46;;;;;;;2.97;2.73;;;;;;;;;;5007764;28;20827;-88
2021/10/24 09:45:14;;;;;;;7.43;2.60;;;15.10;95.00;;;;;;5007197;28;21051;-90
2021/10/24 09:47:43;;;;;;;5.37;3.30;;;14.80;95.10;;;;;;5000514;28;20461;-90
2021/10/24 09:50:11;;;;;;;3.57;3.27;;;15.20;93.90;;;;;;4995689;28;20459;-89
2021/10/24 09:52:39;;;;;;;3.03;2.70;;;15.80;93.10;;;;;;4996745;28;20449;-89
2021/10/24 09:55:16;;;;;;;4.30;2.90;;;16.30;91.80;;;;;;4998510;28;20464;-89
2021/10/24 09:57:45;;;;;;;3.00;2.70;;;15.10;93.20;;;;;;5003458;28;20488;-89
2021/10/24 10:00:14;;;;;;;4.43;2.73;;;15.30;93.40;;;;;;5002574;28;20457;-89
2021/10/24 10:02:43;;;;;;;5.03;3.03;;;16.20;92.60;;;;;;4999135;28;20481;-89
2021/10/24 10:05:10;;;;;;;3.73;2.70;;;;;;;;;;4995685;28;20489;-90
2021/10/24 10:07:37;;;;;;;2.47;2.27;;;;;;;;;;4998303;28;20464;-90
2021/10/24 10:10:05;;;;;;;4.63;2.70;;;;;;;;;;4997536;28;20452;-90
2021/10/24 10:12:35;;;;;;;3.43;3.00;;;;;;;;;;4997578;28;20449;-89
2021/10/24 10:15:04;;;;;;;3.60;3.30;;;14.90;93.60;;;;;;4997078;28;20827;-89
2021/10/24 10:17:32;;;;;;;3.10;2.80;;;;;;;;;;4997166;28;20456;-91
2021/10/24 10:19:59;;;;;;;4.70;2.87;;;;;;;;;;4998085;28;20449;-91
2021/10/24 10:22:29;;;;;;;3.30;2.60;;;14.90;93.40;;;;;;5000732;28;20532;-92
2021/10/24 10:24:58;;;;;;;3.90;2.50;;;14.40;94.20;;;;;;4996326;28;20968;-90
2021/10/24 10:27:46;;;;;;;5.37;2.93;;;15.40;93.00;;;;;;4998851;28;20449;-90
2021/10/24 10:30:15;;;;;;;4.33;3.07;;;14.50;93.90;;;;;;4996675;28;20453;-88
2021/10/24 10:32:44;;;;;;;3.67;2.40;;;14.90;94.10;;;;;;4994687;28;20441;-91
2021/10/24 10:35:14;;;;;;;3.40;3.00;;;16.00;92.90;;;;;;4995545;28;20945;-91
2021/10/24 10:37:49;;;;;;;4.73;2.60;;;15.90;93.60;;;;;;4998433;28;20477;-90
2021/10/24 10:40:18;;;;;;;4.27;2.93;;;15.60;93.70;;;;;;4996192;28;20496;-90
2021/10/24 10:42:55;;;;;;;2.47;2.27;;;15.20;94.20;;;;;;4995314;28;20963;-91
2021/10/24 10:45:42;;;;;;;5.93;3.17;;;16.40;92.50;;;;;;4998517;28;20488;-89
2021/10/24 10:48:21;;;;;;;3.30;2.90;;;17.40;91.60;;;;;;4997281;28;20453;-90
2021/10/24 10:50:49;;;;;;;5.80;4.40;;;;;;;;;;4997643;28;20529;-91
2021/10/24 10:53:39;;;;;;;5.37;3.40;;;15.90;92.70;;;;;;4997996;28;20449;-90
2021/10/24 10:56:19;;;;;;;3.60;3.03;;;16.40;91.60;;;;;;4997979;28;20461;-92
2021/10/24 10:58:52;;;;;;;3.90;2.70;;;16.60;91.90;;;;;;4997945;28;20913;-92
2021/10/24 11:01:26;;;;;;;2.80;2.60;;;16.70;91.60;;;;;;4998258;28;20480;-91
2021/10/24 11:03:56;;;;;;;3.20;2.90;;;17.60;90.20;;;;;;5002038;28;21054;-92
2021/10/24 11:06:57;;;;;;;4.03;2.87;;;16.90;90.50;;;;;;4997013;28;20492;-92
2021/10/24 11:09:45;;;;;;;3.67;2.80;;;17.00;90.10;;;;;;4986215;28;20469;-94
2021/10/24 11:12:31;;;;;;;3.53;3.23;;;16.50;91.60;;;;;;4995177;28;20446;-92
2021/10/24 11:15:08;;;;;;;3.97;2.50;;;17.20;90.70;;;;;;4996096;28;20465;-92
2021/10/24 11:17:37;;;;;;;3.90;2.80;;;17.50;90.00;;;;;;4997656;28;20468;-88
2021/10/24 11:20:15;;;;;;;4.17;2.57;;;17.10;90.70;;;;;;4996061;28;20453;-91
2021/10/24 11:22:46;;;;;;;4.00;3.13;;;16.80;90.80;;;;;;4996131;28;20441;-90
2021/10/24 11:25:25;;;;;;;6.07;3.60;;;16.70;90.50;;;;;;4998981;28;20457;-90
2021/10/24 11:27:52;;;;;;;2.93;2.73;;;;;;;;;;5000022;28;20945;-93
2021/10/24 11:30:20;;;;;;;4.43;3.27;;;;;;;;;;4995876;28;20457;-91
2021/10/24 11:32:54;;;;;;;6.27;3.77;;;16.50;91.40;;;;;;4995074;28;20454;-90
2021/10/24 11:35:22;;;;;;;3.30;2.73;;;16.60;90.80;;;;;;4995987;28;20531;-92
2021/10/24 11:37:51;;;;;;;3.83;2.80;;;16.20;91.30;;;;;;4995401;28;20463;-88
2021/10/24 11:40:20;;;;;;;2.47;2.10;;;15.60;93.10;;;;;;4997504;28;20488;-90
2021/10/24 11:42:57;;;;;;;3.93;3.07;;;14.90;93.60;;;;;;4995627;28;20446;-90
2021/10/24 11:45:26;;;;;;;2.83;2.47;;;15.30;93.00;;;;;;4995162;28;20472;-89
2021/10/24 11:48:04;;;;;;;4.87;3.30;;;16.10;92.40;;;;;;4995225;28;20455;-92
2021/10/24 11:50:55;;;;;;;5.97;2.83;;;16.80;92.20;;;;;;4994895;28;20792;-89
2021/10/24 11:53:32;;;;;;;3.40;2.77;;;17.00;91.30;;;;;;4994455;28;20452;-92
2021/10/24 11:56:03;;;;;;;3.77;2.97;;;16.80;91.80;;;;;;4995741;28;20462;-92
2021/10/24 12:01:18;;;;;;;3.47;2.80;;;17.00;91.50;;;;;;4995576;28;20559;-93
2021/10/24 12:03:55;;;;;;;3.97;2.90;;;17.20;91.40;;;;;;4990786;28;20496;-92
2021/10/24 12:06:53;;;;;;;3.93;2.70;;;17.80;90.40;;;;;;4995157;28;20492;-92
2021/10/24 12:09:31;;;;;;;3.43;2.90;;;17.80;90.10;;;;;;4994830;28;20445;-91
2021/10/24 12:12:09;;;;;;;5.70;3.17;;;17.80;90.80;;;;;;4996155;28;20472;-91
2021/10/24 12:14:46;;;;;;;3.60;3.17;;;;;;;;;;5002898;28;20454;-94
2021/10/24 12:17:17;;;;;;;5.17;2.80;;;;;;;;;;5005091;28;20430;-94
2021/10/24 12:19:44;;;;;;;4.03;3.17;;;;;;;;;;4998516;28;20441;-92
2021/10/24 12:22:11;;;;;;;5.77;4.07;;;;;;;;;;5000357;28;20445;-89
2021/10/24 12:24:43;;;;;;;4.07;3.60;;;17.60;91.90;;;;;;4997893;28;20449;-91
2021/10/24 12:27:18;;;;;;;3.70;3.20;;;17.40;91.80;;;;;;4995575;28;20497;-91
2021/10/24 12:29:57;;;;;;;4.23;3.47;;;17.60;91.40;;;;;;4995853;28;20444;-91
2021/10/24 12:32:26;;;;;;;3.90;3.60;;;17.80;91.80;;;;;;4997243;28;20870;-89
2021/10/24 12:35:02;;;;;;;7.17;4.50;;;18.20;90.70;;;;;;4995299;28;20466;-93
2021/10/24 12:37:29;;;;;;;4.17;3.70;;;;;;;;;;4997053;28;20471;-91
2021/10/24 12:40:19;;;;;;;5.67;3.70;;;18.40;91.30;;;;;;4996008;28;20477;-93
2021/10/24 12:43:03;;;;;;;4.00;3.60;;;17.80;91.20;;;;;;4996587;28;20471;-91
2021/10/24 12:45:30;;;;;;;3.97;3.67;;;;;;;;;;4995793;28;20936;-92
2021/10/24 12:48:00;;;;;;;4.70;4.03;;;17.90;92.20;;;;;;4995781;28;20444;-91
2021/10/24 12:50:34;;;;;;;5.83;3.90;;;18.50;91.00;;;;;;4999795;28;20560;-92
2021/10/24 12:53:02;;;;;;;4.83;4.43;;;;;;;;;;5003669;28;20460;-89
2021/10/24 12:55:29;;;;;;;5.00;4.60;;;;;;;;;;5003527;28;20543;-93
2021/10/24 12:57:57;;;;;;;6.50;4.57;;;;;;;;;;5012632;28;20446;-90
2021/10/24 13:00:24;;;;;;;4.97;4.47;;;;;;;;;;5009750;28;20436;-90
2021/10/24 13:02:53;;;;;;;4.80;4.37;;;;;;;;;;5006069;28;20473;-91
2021/10/24 13:05:26;;;;;;;4.97;4.20;;;;;;;;;;5008064;28;20468;-89
2021/10/24 13:07:54;;;;;;;5.93;4.43;;;;;;;;;;4998906;28;20491;-91
2021/10/24 13:10:22;;;;;;;5.23;3.87;;;;;;;;;;4994436;28;20460;-91
2021/10/24 13:12:52;;;;;;;5.10;4.60;;;;;;;;;;5002074;28;20438;-91
2021/10/24 13:15:23;;;;;;;6.70;4.20;;;;;;;;;;5008180;28;20421;-93
2021/10/24 13:17:54;;;;;;;5.60;4.20;;;;;;;;;;4998152;28;20489;-93
2021/10/24 13:23:05;;;;;;;5.23;4.67;;;;;;;;;;5001249;28;20448;-94
2021/10/24 13:25:35;;;;;;;4.63;4.23;;;;;;;;;;5008510;28;20533;-93
2021/10/24 13:28:05;;;;;;;4.60;3.47;;;;;;;;;;5007193;28;20448;-94
2021/10/24 13:30:36;;;;;;;4.67;3.67;;;;;;;;;;5011530;28;20441;-89
2021/10/24 13:33:10;;;;;;;4.93;3.50;;;;;;;;;;5005735;28;20461;-94
2021/10/24 13:35:42;;;;;;;5.53;4.40;;;;;;;;;;5003064;28;20449;-94
2021/10/24 13:38:09;;;;;;;4.90;4.07;;;;;;;;;;5002919;28;20500;-95
2021/10/24 13:40:37;;;;;;;6.17;4.20;;;;;;;;;;5001466;28;20493;-90
2021/10/24 13:43:10;;;;;;;4.63;3.60;;;;;;;;;;5004459;28;20453;-93
2021/10/24 13:46:01;;;;;;;4.23;3.83;;;;;;;;;;5002177;28;20472;-96
2021/10/24 13:48:40;;;;;;;7.03;3.97;;;;;;;;;;5000228;28;20461;-95
2021/10/24 13:51:10;;;;;;;6.00;4.30;;;;;;;;;;5020661;28;20437;-93
2021/10/24 13:53:40;;;;;;;5.47;3.47;;;;;;;;;;5012472;28;20445;-93
2021/10/24 13:56:07;;;;;;;4.60;3.80;;;;;;;;;;5020988;28;20475;-91
2021/10/24 13:58:42;;;;;;;5.10;4.43;;;;;;;;;;5024243;28;20444;-92
2021/10/24 14:01:09;;;;;;;5.10;4.17;;;;;;;;;;5014468;28;20469;-92
2021/10/24 14:03:39;;;;;;;4.70;4.03;;;;;;;;;;5013032;28;20491;-91
2021/10/24 14:06:06;;;;;;;6.00;3.90;;;;;;;;;;5009644;28;20452;-93
2021/10/24 14:08:36;;;;;;;5.40;4.37;;;;;;;;;;5011119;28;20452;-92
2021/10/24 14:11:04;;;;;;;4.83;3.37;;;;;;;;;;5016894;28;20479;-92
2021/10/24 14:13:31;;;;;;;7.07;4.70;;;;;;;;;;5018443;28;20936;-94
2021/10/24 14:15:58;;;;;;;4.90;4.10;;;;;;;;;;5018273;28;20448;-92
2021/10/24 14:18:27;;;;;;;4.47;3.60;;;18.90;91.10;;;;;;5022971;28;20472;-90
2021/10/24 14:20:54;;;;;;;4.50;4.10;;;;;;;;;;5012690;28;20456;-88